Time;durP1;ratioP1;P1;durP2;ratioP2;P2;SDS_P1;SDS_P2;PMS_P1;PMS_P2;Temp;Humidity;BMP_temperature;BMP_pressure;BME280_temperature;BME280_humidity;BME280_pressure;Samples;Min_cycle;Max_cycle;Signal;HPM_P1;HPM_P2
2024/04/12 00:03:01;;;;;;;20.80;14.80;;;;;;;6.05;98.56;100583.94;273022;1269;22413;-82
2024/04/12 00:09:09;;;;;;;22.70;16.80;;;;;;;5.98;98.79;100578.66;272750;1269;22371;-83
2024/04/12 00:15:34;;;;;;;26.50;16.80;;;;;;;5.97;99.11;100575.88;273051;1265;22252;-81
2024/04/12 00:21:39;;;;;;;20.80;14.30;;;;;;;5.95;99.33;100568.02;273086;1263;22442;-82
2024/04/12 00:27:42;;;;;;;21.00;14.80;;;;;;;5.87;99.43;100563.04;272938;1269;22417;-82
2024/04/12 00:33:42;;;;;;;25.60;15.70;;;;;;;5.80;99.43;100559.05;271470;1269;22406;-82
2024/04/12 00:40:07;;;;;;;26.60;16.50;;;;;;;5.75;99.76;100551.33;271385;1266;22511;-83
2024/04/12 00:46:09;;;;;;;22.00;14.40;;;;;;;5.69;99.94;100542.46;270511;1263;22492;-81
2024/04/12 00:52:12;;;;;;;23.80;15.30;;;;;;;5.65;100.00;100544.05;272326;1269;22477;-82
2024/04/12 00:58:48;;;;;;;23.90;15.20;;;;;;;5.62;100.00;100544.13;271784;1269;22579;-81
2024/04/12 01:04:49;;;;;;;26.30;16.50;;;;;;;5.55;100.00;100549.23;272512;1269;22339;-81
2024/04/12 01:10:51;;;;;;;31.50;19.70;;;;;;;5.50;100.00;100556.33;272870;1269;22402;-82
2024/04/12 01:16:54;;;;;;;26.70;17.10;;;;;;;5.47;100.00;100557.27;272878;1269;22276;-82
2024/04/12 01:23:10;;;;;;;26.20;17.00;;;;;;;5.41;100.00;100554.12;272930;1269;23374;-81
2024/04/12 01:29:11;;;;;;;36.70;20.80;;;;;;;5.29;100.00;100560.51;273060;1269;22505;-81
2024/04/12 01:35:12;;;;;;;28.90;18.30;;;;;;;5.21;100.00;100564.46;272915;1269;22224;-81
2024/04/12 01:41:14;;;;;;;30.90;16.60;;;;;;;5.18;100.00;100561.29;272656;1269;22580;-82
2024/04/12 01:47:56;;;;;;;27.70;17.20;;;;;;;5.19;100.00;100571.38;273076;1269;22256;-81
2024/04/12 01:53:57;;;;;;;28.40;16.80;;;;;;;5.19;100.00;100574.02;272136;1257;23245;-81
2024/04/12 02:00:01;;;;;;;23.50;17.00;;;;;;;5.18;100.00;100571.17;272812;1269;22281;-81
2024/04/12 02:06:22;;;;;;;25.60;15.70;;;;;;;5.13;100.00;100566.71;272929;1270;163622;-81
2024/04/12 02:12:23;;;;;;;19.50;14.80;;;;;;;5.11;100.00;100567.73;272402;1270;22476;-81
2024/04/12 02:18:25;;;;;;;23.50;16.30;;;;;;;5.13;100.00;100569.09;272763;1270;22385;-82
2024/04/12 02:24:48;;;;;;;24.30;15.60;;;;;;;5.16;100.00;100569.36;272888;1270;22383;-82
2024/04/12 02:30:57;;;;;;;30.30;17.70;;;;;;;5.20;100.00;100567.97;272814;1270;22405;-81
2024/04/12 02:37:36;;;;;;;29.50;17.70;;;;;;;5.22;100.00;100564.73;273059;1269;22243;-80
2024/04/12 02:43:37;;;;;;;24.40;15.90;;;;;;;5.24;100.00;100559.87;272965;1269;22589;-81
2024/04/12 02:49:40;;;;;;;21.10;14.60;;;;;;;5.17;100.00;100562.50;272236;1270;22628;-81
2024/04/12 02:55:47;;;;;;;29.30;16.50;;;;;;;5.11;100.00;100558.52;270572;1269;22573;-81
2024/04/12 03:02:28;;;;;;;25.00;16.00;;;;;;;5.10;100.00;100564.47;270429;1270;22468;-81
2024/04/12 03:08:32;;;;;;;23.90;16.80;;;;;;;5.13;100.00;100571.38;270823;1269;22542;-81
2024/04/12 03:14:41;;;;;;;24.60;16.00;;;;;;;5.16;100.00;100572.63;270989;1270;22641;-81
2024/04/12 03:20:42;;;;;;;25.30;16.80;;;;;;;5.13;100.00;100571.10;270955;1270;22396;-80
2024/04/12 03:26:43;;;;;;;25.80;15.80;;;;;;;5.12;100.00;100570.14;272831;1270;22414;-80
2024/04/12 03:32:47;;;;;;;25.10;16.70;;;;;;;5.11;100.00;100578.09;273071;1270;23203;-80
2024/04/12 03:45:38;;;;;;;24.80;16.70;;;;;;;5.10;100.00;100584.61;272893;1270;22329;-80
2024/04/12 03:51:44;;;;;;;23.80;15.60;;;;;;;5.08;100.00;100589.33;272722;1269;22444;-81
2024/04/12 03:58:03;;;;;;;25.90;14.80;;;;;;;5.12;100.00;100585.98;272628;1269;22542;-80
2024/04/12 04:04:10;;;;;;;22.60;15.00;;;;;;;5.15;100.00;100576.45;272872;1270;23044;-80
2024/04/12 04:10:25;;;;;;;22.80;14.20;;;;;;;5.13;100.00;100580.83;272806;1270;22911;-81
2024/04/12 04:16:36;;;;;;;21.10;13.60;;;;;;;5.14;100.00;100588.34;272734;1270;22274;-80
2024/04/12 04:22:50;;;;;;;25.30;15.90;;;;;;;5.17;100.00;100592.85;272856;1270;22295;-81
2024/04/12 04:28:51;;;;;;;26.40;16.60;;;;;;;5.19;100.00;100596.45;272831;1270;22396;-81
2024/04/12 04:35:05;;;;;;;27.80;16.30;;;;;;;5.22;100.00;100601.34;272808;1270;22410;-80
2024/04/12 04:41:48;;;;;;;;;;;;;;;;;;;;;
2024/04/12 04:47:49;;;;;;;28.40;18.50;;;;;;;5.33;100.00;100603.45;272725;1270;22401;-80
2024/04/12 04:53:52;;;;;;;32.10;18.30;;;;;;;5.47;100.00;100606.75;272015;1269;23645;-80
2024/04/12 05:00:22;;;;;;;24.50;15.60;;;;;;;5.64;100.00;100616.12;272703;1264;22268;-81
2024/04/12 05:06:35;;;;;;;19.10;12.60;;;;;;;5.89;100.00;100614.87;272915;1270;22337;-81
2024/04/12 05:12:36;;;;;;;29.20;16.70;;;;;;;6.20;100.00;100613.12;272264;1269;22416;-81
2024/04/12 05:18:37;;;;;;;28.60;18.00;;;;;;;6.53;100.00;100612.77;271649;1269;23682;-81
2024/04/12 05:24:39;;;;;;;25.40;17.40;;;;;;;6.83;100.00;100619.38;271606;1259;22500;-82
2024/04/12 05:30:49;;;;;;;29.50;17.50;;;;;;;7.10;100.00;100621.57;272822;1270;23433;-84
2024/04/12 05:36:54;;;;;;;22.40;16.70;;;;;;;7.35;100.00;100622.52;272783;1270;22323;-82
2024/04/12 05:43:15;;;;;;;24.60;16.20;;;;;;;7.69;100.00;100621.09;272695;1269;22403;-81
2024/04/12 05:49:30;;;;;;;27.20;16.40;;;;;;;8.20;100.00;100616.14;272724;1267;23317;-81
2024/04/12 05:55:32;;;;;;;28.40;17.30;;;;;;;8.79;100.00;100615.05;272799;1270;22405;-81
2024/04/12 06:01:33;;;;;;;22.90;17.00;;;;;;;9.30;100.00;100617.23;272773;1269;22464;-82
2024/04/12 06:07:35;;;;;;;40.00;21.30;;;;;;;9.71;100.00;100614.69;273065;1269;23373;-83
2024/04/12 06:13:54;;;;;;;22.70;15.00;;;;;;;10.05;100.00;100609.05;272915;1269;22389;-82
2024/04/12 06:20:30;;;;;;;19.80;14.00;;;;;;;10.29;100.00;100603.02;272769;1270;22357;-81
2024/04/12 06:26:31;;;;;;;20.00;13.80;;;;;;;10.55;100.00;100596.46;272657;1270;22527;-81
2024/04/12 06:32:33;;;;;;;17.40;12.60;;;;;;;10.85;100.00;100593.48;273037;1270;22357;-81
2024/04/12 06:38:34;;;;;;;21.40;13.30;;;;;;;11.09;100.00;100590.65;272989;1269;23227;-82
2024/04/12 06:44:36;;;;;;;17.80;11.80;;;;;;;11.26;100.00;100586.84;272695;1262;22396;-82
2024/04/12 06:50:37;;;;;;;18.20;12.30;;;;;;;11.45;100.00;100587.48;272745;1270;23716;-81
2024/04/12 06:56:38;;;;;;;17.80;12.20;;;;;;;11.64;100.00;100584.36;272969;1270;24059;-81
2024/04/12 07:02:40;;;;;;;26.70;13.30;;;;;;;11.86;100.00;100579.42;272699;1262;22513;-83
2024/04/12 07:08:49;;;;;;;23.00;15.40;;;;;;;12.11;100.00;100577.20;272913;1270;23327;-81
2024/04/12 07:14:54;;;;;;;26.30;16.50;;;;;;;12.31;100.00;100575.67;272431;1270;22569;-81
2024/04/12 07:21:14;;;;;;;25.00;16.60;;;;;;;12.56;100.00;100571.68;271080;1269;22519;-83
2024/04/12 07:27:41;;;;;;;27.30;16.50;;;;;;;12.89;99.99;100562.25;271172;1256;24251;-82
2024/04/12 07:33:49;;;;;;;26.00;14.60;;;;;;;13.26;99.36;100556.79;271819;1269;22385;-83
2024/04/12 07:40:15;;;;;;;21.80;14.60;;;;;;;13.60;98.42;100559.02;272575;1269;22295;-81
2024/04/12 07:46:14;;;;;;;23.40;14.30;;;;;;;14.00;96.80;100566.98;271580;1270;22480;-82
2024/04/12 07:53:10;;;;;;;13.80;10.20;;;;;;;14.44;96.04;100566.20;271425;1262;24210;-83
2024/04/12 07:59:15;;;;;;;14.50;9.80;;;;;;;14.98;95.69;100563.23;273080;1270;22519;-83
2024/04/12 08:05:59;;;;;;;12.20;7.20;;;;;;;15.55;91.63;100563.13;271937;1263;22363;-84
2024/04/12 08:12:04;;;;;;;13.10;6.60;;;;;;;15.91;87.02;100564.39;273149;1269;23400;-83
2024/04/12 08:18:45;;;;;;;12.90;7.10;;;;;;;16.34;88.12;100559.94;272208;1270;23780;-83
2024/04/12 08:24:51;;;;;;;14.00;8.20;;;;;;;16.68;84.86;100555.95;270701;1270;22411;-83
2024/04/12 08:31:11;;;;;;;12.10;6.00;;;;;;;16.85;84.26;100549.27;271371;1269;22590;-83
2024/04/12 08:37:14;;;;;;;10.00;6.40;;;;;;;17.01;80.67;100544.30;270178;1270;24964;-84
2024/04/12 08:43:58;;;;;;;;;;;;;;;;;;;;;
2024/04/12 08:50:23;;;;;;;13.00;5.90;;;;;;;17.21;78.92;100539.58;272617;1270;22799;-81
2024/04/12 08:56:45;;;;;;;12.40;6.00;;;;;;;17.43;76.80;100539.78;271381;1270;22906;-82
2024/04/12 09:03:10;;;;;;;7.70;4.90;;;;;;;17.62;74.38;100534.95;272664;1270;22277;-82
2024/04/12 09:09:13;;;;;;;7.10;4.80;;;;;;;17.98;74.31;100534.77;273259;1270;22575;-81
2024/04/12 09:15:24;;;;;;;6.80;3.50;;;;;;;18.52;70.77;100528.79;272475;1269;22443;-81
2024/04/12 09:21:29;;;;;;;7.30;4.60;;;;;;;18.79;69.20;100521.27;272912;1271;22429;-83
2024/04/12 09:27:34;;;;;;;6.20;3.50;;;;;;;19.21;69.22;100515.04;272848;1269;23078;-81
2024/04/12 09:33:50;;;;;;;7.40;3.30;;;;;;;20.31;67.33;100507.92;273029;1269;23372;-82
2024/04/12 09:46:09;;;;;;;6.00;2.10;;;;;;;21.96;61.67;100504.81;273068;1269;22463;-84
2024/04/12 10:38:16;;;;;;;4.40;2.30;;;;;;;25.61;43.11;100446.90;270910;1270;22409;-82
2024/04/12 10:44:17;;;;;;;5.80;2.40;;;;;;;25.56;41.42;100436.39;271603;1269;23566;-82
2024/04/12 10:50:19;;;;;;;7.10;2.30;;;;;;;25.67;40.57;100429.27;272024;1270;23647;-83
2024/04/12 10:56:43;;;;;;;7.60;2.30;;;;;;;25.42;40.98;100425.46;271707;1269;22253;-84
2024/04/12 11:02:45;;;;;;;5.00;2.30;;;;;;;25.42;39.88;100414.65;271732;1270;22395;-82
2024/04/12 11:08:46;;;;;;;6.20;2.40;;;;;;;25.52;38.81;100403.23;272363;1270;22511;-84
2024/04/12 11:15:00;;;;;;;6.40;2.20;;;;;;;26.07;38.97;100395.74;271574;1269;22616;-83
2024/04/12 11:34:51;;;;;;;5.50;2.00;;;;;;;26.67;35.91;100376.23;270721;1270;22542;-83
2024/04/12 11:41:23;;;;;;;3.70;2.00;;;;;;;26.66;36.80;100368.40;272698;1270;22191;-83
2024/04/12 11:47:38;;;;;;;7.00;2.30;;;;;;;26.57;36.69;100357.94;271998;1270;22580;-83
2024/04/12 11:53:43;;;;;;;4.60;2.40;;;;;;;26.10;36.48;100355.00;271656;1269;22767;-86
2024/04/12 12:00:09;;;;;;;5.90;2.80;;;;;;;25.80;36.30;100351.88;270512;1270;23976;-84
2024/04/12 12:06:26;;;;;;;7.10;2.30;;;;;;;25.22;35.90;100344.05;271188;1270;22595;-84
2024/04/12 12:13:08;;;;;;;7.10;2.60;;;;;;;24.78;36.83;100337.60;272561;1270;23563;-85
2024/04/12 12:19:10;;;;;;;4.90;2.60;;;;;;;24.16;37.16;100335.80;273005;1269;22554;-82
2024/04/12 12:25:11;;;;;;;6.90;2.70;;;;;;;24.05;37.59;100330.31;272843;1270;22444;-84
2024/04/12 12:31:13;;;;;;;8.90;3.30;;;;;;;24.04;37.97;100317.79;272572;1266;22575;-83
2024/04/12 12:37:14;;;;;;;6.30;2.70;;;;;;;24.06;38.54;100302.08;272451;1270;23171;-82
2024/04/12 12:43:44;;;;;;;6.40;2.20;;;;;;;24.21;39.00;100287.89;273043;1271;22942;-82
2024/04/12 12:50:19;;;;;;;8.80;2.60;;;;;;;24.12;38.28;100281.64;272954;1271;22380;-82
2024/04/12 12:56:35;;;;;;;5.20;2.70;;;;;;;24.19;38.44;100276.43;272543;1270;22563;-83
2024/04/12 13:02:38;;;;;;;5.20;2.80;;;;;;;24.03;38.51;100272.41;272091;1269;22535;-81
2024/04/12 13:08:42;;;;;;;6.10;3.10;;;;;;;23.56;39.05;100268.10;271610;1270;23204;-82
2024/04/12 13:14:45;;;;;;;6.90;2.60;;;;;;;23.45;39.06;100258.84;271442;1270;22559;-82
2024/04/12 13:20:47;;;;;;;6.70;2.20;;;;;;;23.16;39.44;100255.09;271031;1269;24228;-82
2024/04/12 13:27:08;;;;;;;6.90;2.50;;;;;;;23.15;40.44;100248.17;271369;1269;22553;-82
2024/04/12 13:33:10;;;;;;;5.00;2.20;;;;;;;23.01;40.58;100241.04;271924;1269;23348;-83
2024/04/12 13:39:14;;;;;;;9.60;2.90;;;;;;;22.84;40.80;100236.73;272526;1269;22503;-83
2024/04/12 13:51:39;;;;;;;5.30;2.70;;;;;;;22.62;41.05;100230.60;272474;1270;22479;-82
2024/04/12 13:58:26;;;;;;;9.40;2.80;;;;;;;22.48;41.26;100228.85;271924;1270;22547;-82
2024/04/12 14:04:54;;;;;;;7.00;2.80;;;;;;;22.28;42.27;100225.84;271131;1270;22562;-83
2024/04/12 14:11:35;;;;;;;8.30;3.40;;;;;;;22.57;42.53;100219.20;271449;1272;125917;-83
2024/04/12 14:18:04;;;;;;;9.60;3.20;;;;;;;22.85;42.23;100206.23;272392;1270;22378;-83
2024/04/12 14:24:55;;;;;;;9.70;3.30;;;;;;;22.86;42.71;100194.24;272669;1270;23379;-83
2024/04/12 14:30:27;;;;;;;5.30;2.40;;;;;;;22.90;43.12;100187.55;273133;1270;22421;-85
2024/04/12 14:36:28;;;;;;;6.70;3.20;;;;;;;22.80;43.35;100185.45;273017;1271;22427;-83
2024/04/12 14:42:30;;;;;;;6.70;3.00;;;;;;;22.62;42.98;100180.84;272319;1270;23583;-83
2024/04/12 14:48:38;;;;;;;7.60;2.80;;;;;;;22.15;43.24;100174.58;272914;1270;22513;-84
2024/04/12 14:54:40;;;;;;;5.70;3.10;;;;;;;21.78;44.44;100162.27;271620;1270;23511;-82
2024/04/12 15:00:42;;;;;;;8.80;3.10;;;;;;;21.80;44.21;100150.64;271859;1270;22367;-82
2024/04/12 15:51:33;;;;;;;6.70;3.10;;;;;;;20.61;48.94;100120.48;272862;1270;23739;-82
2024/04/12 16:10:56;;;;;;;6.10;2.30;;;;;;;20.02;50.30;100111.46;272981;1270;22406;-82
2024/04/12 16:17:15;;;;;;;4.70;2.60;;;;;;;19.89;50.29;100114.20;272953;1270;22438;-82
2024/04/12 16:23:36;;;;;;;4.40;2.30;;;;;;;19.68;50.99;100115.88;272797;1270;22958;-83
2024/04/12 16:29:40;;;;;;;8.50;2.60;;;;;;;19.46;52.32;100110.34;272093;1269;22410;-82
2024/04/12 16:36:27;;;;;;;7.20;2.60;;;;;;;19.25;51.93;100104.99;272663;1269;22580;-82
2024/04/12 16:42:28;;;;;;;7.80;2.80;;;;;;;19.01;52.48;100107.02;271165;1270;22561;-81
2024/04/12 16:48:31;;;;;;;10.60;2.40;;;;;;;18.78;53.15;100105.64;272219;1270;22279;-81
2024/04/12 16:54:32;;;;;;;8.20;2.90;;;;;;;18.55;53.53;100102.63;272828;1270;22272;-82
2024/04/12 17:00:35;;;;;;;5.10;2.60;;;;;;;18.26;53.24;100096.52;272958;1269;22258;-82
2024/04/12 17:07:16;;;;;;;6.20;2.70;;;;;;;18.08;53.63;100098.92;271374;1269;22691;-82
2024/04/12 17:13:17;;;;;;;5.10;2.70;;;;;;;17.82;54.15;100090.56;272264;1270;22552;-82
2024/04/12 17:19:18;;;;;;;4.90;2.70;;;;;;;17.60;54.75;100091.52;272219;1270;22351;-82
2024/04/12 17:25:19;;;;;;;8.20;3.00;;;;;;;17.39;55.25;100095.27;272815;1270;22691;-80
2024/04/12 17:31:20;;;;;;;6.70;2.80;;;;;;;17.18;55.86;100093.89;272528;1270;23095;-82
2024/04/12 17:37:21;;;;;;;6.60;2.70;;;;;;;17.01;56.39;100095.66;265188;1270;10001363;-82
2024/04/12 17:43:42;;;;;;;7.60;3.20;;;;;;;16.82;56.78;100094.12;272807;1270;22345;-82
2024/04/12 17:49:43;;;;;;;28.00;5.30;;;;;;;16.70;57.30;100090.05;272617;1270;23935;-82
2024/04/12 17:55:46;;;;;;;21.40;4.80;;;;;;;16.51;58.18;100087.59;272748;1264;22346;-82
2024/04/12 18:01:48;;;;;;;20.10;6.90;;;;;;;16.27;58.97;100089.48;272543;1270;22244;-82
2024/04/12 18:08:46;;;;;;;17.70;7.50;;;;;;;16.03;59.73;100091.88;272734;1263;22364;-82
2024/04/12 18:15:13;;;;;;;15.70;8.20;;;;;;;15.75;60.69;100096.02;272590;1264;23140;-81
2024/04/12 18:21:16;;;;;;;11.00;8.20;;;;;;;15.47;61.52;100100.42;272572;1270;22482;-83
2024/04/12 18:27:17;;;;;;;16.20;8.90;;;;;;;15.24;62.38;100106.48;272546;1265;22436;-82
2024/04/12 18:33:20;;;;;;;30.00;10.30;;;;;;;15.01;63.35;100104.59;272474;1262;22333;-83
2024/04/12 18:46:20;;;;;;;15.00;8.00;;;;;;;14.59;65.27;100103.70;272101;1269;22416;-82
2024/04/12 18:52:41;;;;;;;21.00;8.80;;;;;;;14.37;65.93;100106.96;272097;1260;22392;-83
2024/04/12 18:58:43;;;;;;;26.80;8.60;;;;;;;14.19;66.81;100108.11;272023;1261;22367;-81
2024/04/12 19:04:44;;;;;;;21.30;8.10;;;;;;;13.99;67.62;100112.36;271917;1273;22410;-82
2024/04/12 19:10:45;;;;;;;47.60;9.50;;;;;;;13.88;68.52;100110.54;272489;1270;22568;-82
2024/04/12 19:17:27;;;;;;;32.30;9.60;;;;;;;13.81;69.31;100111.21;272644;1270;22363;-82
2024/04/12 19:23:36;;;;;;;14.80;8.90;;;;;;;13.72;70.32;100116.42;272507;1269;22381;-83
2024/04/12 19:29:37;;;;;;;19.40;8.30;;;;;;;13.54;70.73;100115.42;272057;1270;25474;-82
2024/04/12 19:35:38;;;;;;;24.10;10.00;;;;;;;13.29;71.28;100110.81;272892;1270;22373;-83
2024/04/12 19:41:39;;;;;;;22.60;10.40;;;;;;;13.08;72.25;100109.86;271952;1270;23849;-82
2024/04/12 19:47:40;;;;;;;15.30;9.60;;;;;;;13.01;72.70;100105.58;272468;1270;22515;-83
2024/04/12 19:53:43;;;;;;;22.90;10.10;;;;;;;12.96;73.53;100093.42;272756;1269;22482;-81
2024/04/12 19:59:47;;;;;;;18.10;10.80;;;;;;;12.87;75.27;100088.39;272505;1270;22318;-82
2024/04/12 20:06:05;;;;;;;20.80;11.80;;;;;;;12.65;75.50;100089.23;272611;1270;23268;-82
2024/04/12 20:12:07;;;;;;;16.80;9.50;;;;;;;12.47;76.07;100080.93;272778;1269;23216;-82
2024/04/12 20:18:08;;;;;;;15.80;9.60;;;;;;;12.35;77.20;100076.04;272765;1270;22873;-82
2024/04/12 20:24:11;;;;;;;18.80;9.00;;;;;;;12.22;78.28;100071.45;272787;1270;22566;-82
2024/04/12 20:30:46;;;;;;;16.90;9.30;;;;;;;12.09;78.75;100068.64;272686;1269;22316;-83
2024/04/12 20:36:40;;;;;;;16.80;11.10;;;;;;;11.97;79.00;100066.95;272777;1270;22426;-82
2024/04/12 20:43:02;;;;;;;16.20;9.90;;;;;;;11.82;79.59;100067.48;272710;1270;22457;-82
2024/04/12 20:49:03;;;;;;;17.50;8.80;;;;;;;11.67;80.58;100069.71;272727;1266;22530;-82
2024/04/12 20:55:05;;;;;;;16.70;9.60;;;;;;;11.55;81.66;100067.67;272859;1269;22600;-83
2024/04/12 21:01:46;;;;;;;20.60;10.20;;;;;;;11.47;82.35;100068.89;272852;1270;23590;-82
2024/04/12 21:08:14;;;;;;;15.00;8.50;;;;;;;11.36;82.61;100067.38;272788;1270;22429;-82
2024/04/12 21:14:15;;;;;;;14.90;9.60;;;;;;;11.26;83.28;100069.23;272788;1269;22477;-83
2024/04/12 21:20:16;;;;;;;14.70;9.40;;;;;;;11.19;83.84;100069.91;272809;1269;22477;-82
2024/04/12 21:26:22;;;;;;;15.20;9.90;;;;;;;11.06;84.10;100072.20;272842;1269;22260;-83
2024/04/12 21:32:23;;;;;;;16.80;11.30;;;;;;;10.97;84.34;100065.28;272673;1263;23175;-85
2024/04/12 21:39:05;;;;;;;22.90;11.50;;;;;;;10.87;84.71;100055.31;272675;1270;22296;-81
2024/04/12 21:45:06;;;;;;;18.00;10.80;;;;;;;10.79;85.32;100038.50;272840;1269;23781;-82
2024/04/12 21:51:09;;;;;;;15.30;10.80;;;;;;;10.66;85.82;100035.18;272798;1269;22368;-81
2024/04/12 21:57:30;;;;;;;21.60;13.30;;;;;;;10.52;86.63;100037.52;272819;1269;23456;-82
2024/04/12 22:03:31;;;;;;;17.80;12.50;;;;;;;10.39;87.27;100035.67;272835;1263;22268;-82
2024/04/12 22:09:53;;;;;;;20.30;11.70;;;;;;;10.34;88.12;100029.28;272768;1270;22386;-81
2024/04/12 22:15:57;;;;;;;21.40;13.10;;;;;;;10.32;88.16;100032.49;272837;1270;22340;-81
2024/04/12 22:22:18;;;;;;;19.10;11.70;;;;;;;10.19;88.70;100022.83;273013;1270;22281;-82
2024/04/12 22:28:27;;;;;;;29.50;13.50;;;;;;;10.16;89.65;100014.70;272742;1265;22197;-82
2024/04/12 22:34:28;;;;;;;24.70;12.70;;;;;;;10.13;89.65;100011.85;272838;1269;22480;-81
2024/04/12 22:40:30;;;;;;;32.90;13.80;;;;;;;10.03;89.97;100015.45;272640;1263;23676;-82
2024/04/12 22:46:30;;;;;;;27.20;16.90;;;;;;;9.98;90.35;100012.48;272538;1270;22453;-82
2024/04/12 22:52:32;;;;;;;25.70;14.00;;;;;;;9.96;90.46;100014.21;272790;1269;22370;-82
2024/04/12 22:58:35;;;;;;;21.70;12.40;;;;;;;9.87;90.55;100016.22;272796;1269;23294;-82
2024/04/12 23:05:32;;;;;;;21.40;12.70;;;;;;;9.74;90.71;100017.85;272787;1270;22269;-82
2024/04/12 23:11:33;;;;;;;18.20;12.30;;;;;;;9.65;91.41;100027.02;272788;1270;22403;-82
